Time;durP1;ratioP1;P1;durP2;ratioP2;P2;SDS_P1;SDS_P2;PMS_P1;PMS_P2;Temp;Humidity;BMP_temperature;BMP_pressure;BME280_temperature;BME280_humidity;BME280_pressure;Samples;Min_cycle;Max_cycle;Signal;HPM_P1;HPM_P2
2024/01/07 00:01:03;;;;;;;1.00;1.00;;;5.50;69.60;;;;;;5071013;28;20438;-70
2024/01/07 00:03:28;;;;;;;0.93;0.93;;;5.50;69.60;;;;;;5071229;28;20058;-71
2024/01/07 00:05:54;;;;;;;1.55;1.45;;;5.50;69.70;;;;;;5071115;28;20028;-71
2024/01/07 00:08:20;;;;;;;0.70;0.70;;;5.50;69.60;;;;;;5071176;28;20085;-71
2024/01/07 00:10:46;;;;;;;0.73;0.73;;;5.60;69.50;;;;;;5071134;28;20074;-71
2024/01/07 00:13:11;;;;;;;1.27;1.20;;;5.50;69.50;;;;;;5071807;28;20426;-71
2024/01/07 00:15:37;;;;;;;0.75;0.75;;;5.50;69.70;;;;;;5071117;28;20040;-71
2024/01/07 00:18:02;;;;;;;1.45;1.35;;;5.50;69.70;;;;;;5071665;28;20054;-71
2024/01/07 00:20:28;;;;;;;6.78;1.30;;;5.50;69.60;;;;;;5071065;28;20485;-71
2024/01/07 00:22:53;;;;;;;0.60;0.60;;;5.60;69.60;;;;;;5071311;28;20024;-71
2024/01/07 00:25:19;;;;;;;0.90;0.90;;;5.60;69.70;;;;;;5071417;28;20060;-71
2024/01/07 00:27:45;;;;;;;0.65;0.65;;;5.50;69.60;;;;;;5071599;28;20211;-71
2024/01/07 00:30:11;;;;;;;0.80;0.80;;;5.60;69.60;;;;;;5071408;28;20111;-71
2024/01/07 00:32:36;;;;;;;0.80;0.80;;;5.60;69.60;;;;;;5071254;28;20089;-71
2024/01/07 00:35:02;;;;;;;1.33;1.25;;;5.50;69.50;;;;;;5070767;28;20029;-71
2024/01/07 00:37:28;;;;;;;0.75;0.75;;;5.60;69.60;;;;;;5071082;28;20426;-71
2024/01/07 00:39:53;;;;;;;0.82;0.82;;;5.60;69.70;;;;;;5070953;28;20024;-71
2024/01/07 00:42:19;;;;;;;2.75;0.88;;;5.60;69.70;;;;;;5071311;28;20107;-71
2024/01/07 00:44:44;;;;;;;0.88;0.88;;;5.60;69.60;;;;;;5070918;28;20515;-71
2024/01/07 00:47:10;;;;;;;0.95;0.95;;;5.50;69.60;;;;;;5069471;28;20028;-71
2024/01/07 00:49:35;;;;;;;0.80;0.80;;;5.60;69.70;;;;;;5070925;28;20071;-71
2024/01/07 00:52:01;;;;;;;0.98;0.93;;;5.60;69.60;;;;;;5070946;28;20035;-71
2024/01/07 00:54:26;;;;;;;0.65;0.65;;;5.60;69.60;;;;;;5070661;28;20113;-72
2024/01/07 00:56:52;;;;;;;0.88;0.88;;;5.50;69.60;;;;;;5070778;28;20080;-72
2024/01/07 00:59:17;;;;;;;1.42;1.33;;;5.60;69.50;;;;;;5070869;28;20033;-71
2024/01/07 01:01:43;;;;;;;0.70;0.70;;;5.50;69.50;;;;;;5070734;28;20111;-71
2024/01/07 01:04:08;;;;;;;0.70;0.70;;;5.50;69.60;;;;;;5070691;28;20036;-71
2024/01/07 01:06:34;;;;;;;0.60;0.60;;;5.50;69.70;;;;;;5073026;28;20380;-71
2024/01/07 01:08:59;;;;;;;0.60;0.60;;;5.50;69.80;;;;;;5074445;28;20024;-71
2024/01/07 01:11:25;;;;;;;0.70;0.70;;;5.60;69.80;;;;;;5073305;28;20111;-71
2024/01/07 01:13:50;;;;;;;0.60;0.60;;;5.60;69.70;;;;;;5074430;28;20033;-71
2024/01/07 01:16:15;;;;;;;1.08;1.00;;;5.60;69.90;;;;;;5074188;28;20426;-71
2024/01/07 01:18:41;;;;;;;0.68;0.68;;;5.60;69.80;;;;;;5074331;28;20039;-71
2024/01/07 01:21:07;;;;;;;0.60;0.60;;;5.60;69.70;;;;;;5073828;28;20621;-71
2024/01/07 01:23:33;;;;;;;0.60;0.60;;;5.60;69.60;;;;;;5074338;28;20112;-71
2024/01/07 01:25:58;;;;;;;0.70;0.70;;;5.60;69.60;;;;;;5074451;28;20103;-71
2024/01/07 01:28:24;;;;;;;0.77;0.77;;;5.50;69.40;;;;;;5074592;28;20383;-71
2024/01/07 01:30:49;;;;;;;0.60;0.60;;;5.50;69.40;;;;;;5073746;28;20037;-72
2024/01/07 01:33:15;;;;;;;0.70;0.70;;;5.50;69.40;;;;;;5074665;28;20024;-71
2024/01/07 01:35:40;;;;;;;0.63;0.63;;;5.50;69.40;;;;;;5073866;28;20119;-72
2024/01/07 01:38:06;;;;;;;1.33;1.23;;;5.50;69.40;;;;;;5074614;28;20155;-72
2024/01/07 01:40:32;;;;;;;0.60;0.60;;;5.50;69.50;;;;;;5072816;28;20525;-71
2024/01/07 01:42:57;;;;;;;0.80;0.80;;;5.50;69.40;;;;;;5072590;28;20400;-71
2024/01/07 01:45:23;;;;;;;3.80;1.70;;;5.50;69.50;;;;;;5073949;28;20039;-71
2024/01/07 01:47:48;;;;;;;0.60;0.60;;;5.50;69.40;;;;;;5073749;28;20029;-71
2024/01/07 01:50:14;;;;;;;0.57;0.57;;;5.50;69.50;;;;;;5074092;28;20685;-71
2024/01/07 01:52:41;;;;;;;0.68;0.68;;;5.50;69.30;;;;;;5072553;28;20033;-71
2024/01/07 01:55:06;;;;;;;0.63;0.63;;;5.50;69.20;;;;;;5073692;28;20044;-72
2024/01/07 01:57:39;;;;;;;1.10;1.10;;;5.40;69.40;;;;;;5074243;28;20033;-71
2024/01/07 02:00:05;;;;;;;0.60;0.60;;;5.40;69.30;;;;;;5073726;28;20483;-71
2024/01/07 02:02:34;;;;;;;0.82;0.82;;;5.40;69.40;;;;;;5073409;28;20013;-71
2024/01/07 02:05:03;;;;;;;0.70;0.70;;;5.40;69.40;;;;;;5073806;28;20036;-71
2024/01/07 02:07:30;;;;;;;0.50;0.50;;;5.40;69.40;;;;;;5073255;28;20032;-71
2024/01/07 02:09:55;;;;;;;0.65;0.65;;;5.40;69.20;;;;;;5073460;28;20062;-71
2024/01/07 02:12:21;;;;;;;0.80;0.80;;;5.40;69.30;;;;;;5072191;28;20028;-71
2024/01/07 02:14:46;;;;;;;0.60;0.60;;;5.40;69.30;;;;;;5073085;28;20064;-71
2024/01/07 02:17:12;;;;;;;0.60;0.60;;;5.40;69.20;;;;;;5072286;28;20030;-71
2024/01/07 02:19:37;;;;;;;1.00;1.00;;;5.40;69.00;;;;;;5073533;28;20372;-70
2024/01/07 02:22:03;;;;;;;0.70;0.70;;;5.40;69.10;;;;;;5071838;28;20029;-70
2024/01/07 02:24:30;;;;;;;1.45;1.35;;;5.40;69.30;;;;;;5055309;28;20028;-71
2024/01/07 02:26:56;;;;;;;5.10;1.27;;;5.40;69.20;;;;;;5073031;28;20417;-71
2024/01/07 02:29:21;;;;;;;0.90;0.90;;;5.40;69.30;;;;;;5073296;28;20029;-71
2024/01/07 02:31:47;;;;;;;1.20;1.15;;;5.40;69.30;;;;;;5072765;28;20066;-71
2024/01/07 02:34:13;;;;;;;0.90;0.90;;;5.40;69.10;;;;;;5072967;28;20112;-70
2024/01/07 02:36:38;;;;;;;0.60;0.60;;;5.40;69.10;;;;;;5071343;28;20122;-71
2024/01/07 02:39:04;;;;;;;0.80;0.73;;;5.40;69.10;;;;;;5072775;28;20490;-70
2024/01/07 02:41:29;;;;;;;0.70;0.70;;;5.40;68.90;;;;;;5072989;28;20035;-70
2024/01/07 02:43:55;;;;;;;0.70;0.70;;;5.30;69.00;;;;;;5072094;28;20031;-70
2024/01/07 02:46:21;;;;;;;1.13;1.13;;;5.30;69.00;;;;;;5072809;28;20032;-71
2024/01/07 02:48:46;;;;;;;1.00;1.00;;;5.30;68.90;;;;;;5072790;28;20037;-70
2024/01/07 02:51:12;;;;;;;0.80;0.80;;;5.30;68.90;;;;;;5072702;28;20353;-70
2024/01/07 02:53:37;;;;;;;0.60;0.60;;;5.30;68.90;;;;;;5072244;28;20032;-70
2024/01/07 02:56:03;;;;;;;0.70;0.70;;;5.30;69.00;;;;;;5072502;28;20078;-70
2024/01/07 02:58:28;;;;;;;1.80;1.70;;;5.30;69.00;;;;;;5072284;28;20029;-72
2024/01/07 03:00:54;;;;;;;0.60;0.60;;;5.20;68.90;;;;;;5072440;28;20044;-72
2024/01/07 03:03:19;;;;;;;0.60;0.60;;;5.20;69.00;;;;;;5072686;28;20027;-72
2024/01/07 03:05:45;;;;;;;0.93;0.93;;;5.30;68.80;;;;;;5072054;28;20111;-72
2024/01/07 03:08:10;;;;;;;1.30;1.20;;;5.30;68.90;;;;;;5071907;28;20624;-72
2024/01/07 03:10:36;;;;;;;0.73;0.73;;;5.20;68.90;;;;;;5071892;28;20399;-73
2024/01/07 03:13:02;;;;;;;0.60;0.60;;;5.20;69.00;;;;;;5072365;28;20028;-72
2024/01/07 03:15:28;;;;;;;5.25;1.23;;;5.20;68.90;;;;;;5071636;28;20479;-72
2024/01/07 03:17:53;;;;;;;0.70;0.70;;;5.20;69.00;;;;;;5072397;28;20039;-72
2024/01/07 03:20:19;;;;;;;1.45;1.35;;;5.20;69.00;;;;;;5071761;28;20020;-72
2024/01/07 03:22:44;;;;;;;1.95;1.80;;;5.20;69.00;;;;;;5072141;28;20460;-72
2024/01/07 03:25:10;;;;;;;0.80;0.80;;;5.20;68.90;;;;;;5070915;28;20031;-72
2024/01/07 03:27:36;;;;;;;1.13;0.95;;;5.20;68.90;;;;;;5069275;28;20376;-72
2024/01/07 03:30:01;;;;;;;1.35;1.27;;;5.20;68.90;;;;;;5068601;28;20033;-72
2024/01/07 03:32:27;;;;;;;0.70;0.70;;;5.20;69.00;;;;;;5066857;28;20475;-72
2024/01/07 03:34:53;;;;;;;0.70;0.70;;;5.20;68.90;;;;;;5068381;28;20528;-72
2024/01/07 03:37:18;;;;;;;0.70;0.70;;;5.20;68.90;;;;;;5061661;28;20021;-72
2024/01/07 03:39:45;;;;;;;0.70;0.70;;;5.20;68.80;;;;;;5064753;28;20024;-72
2024/01/07 03:42:11;;;;;;;0.68;0.68;;;5.20;68.80;;;;;;5055172;28;20025;-72
2024/01/07 03:44:40;;;;;;;0.80;0.80;;;5.20;68.80;;;;;;5071355;28;20020;-71
2024/01/07 03:47:06;;;;;;;0.57;0.57;;;5.20;68.50;;;;;;5071657;28;20111;-72
2024/01/07 03:49:32;;;;;;;0.52;0.52;;;5.10;68.50;;;;;;5071075;28;20054;-72
2024/01/07 03:51:57;;;;;;;0.77;0.77;;;5.10;68.20;;;;;;5071986;28;20149;-72
2024/01/07 03:54:22;;;;;;;3.50;1.70;;;5.00;68.30;;;;;;5062460;28;20044;-72
2024/01/07 03:56:48;;;;;;;0.90;0.90;;;5.00;68.40;;;;;;5070017;28;20115;-72
2024/01/07 03:59:13;;;;;;;0.95;0.95;;;5.00;68.20;;;;;;5068955;28;20399;-72
2024/01/07 04:01:39;;;;;;;0.80;0.75;;;5.00;68.20;;;;;;5070903;28;20122;-72
2024/01/07 04:04:04;;;;;;;0.73;0.73;;;4.90;68.40;;;;;;5069291;28;20546;-71
2024/01/07 04:06:30;;;;;;;0.75;0.75;;;4.90;68.40;;;;;;5070539;28;20471;-70
2024/01/07 04:08:55;;;;;;;0.80;0.80;;;4.80;68.40;;;;;;5071401;28;20043;-70
2024/01/07 04:11:21;;;;;;;0.60;0.60;;;4.80;68.60;;;;;;5071660;28;20020;-70
2024/01/07 04:13:46;;;;;;;1.20;1.17;;;4.80;68.70;;;;;;5070854;28;20028;-70
2024/01/07 04:16:21;;;;;;;1.05;0.90;;;4.70;69.00;;;;;;5087728;28;20056;-70
2024/01/07 04:18:47;;;;;;;0.77;0.77;;;4.70;68.90;;;;;;5071027;28;20048;-70
2024/01/07 04:21:12;;;;;;;0.90;0.90;;;4.70;68.90;;;;;;5071209;28;20060;-70
2024/01/07 04:23:40;;;;;;;0.80;0.80;;;4.70;68.90;;;;;;5070787;28;20024;-70
2024/01/07 04:26:09;;;;;;;0.60;0.60;;;4.70;68.90;;;;;;5069409;28;20094;-70
2024/01/07 04:28:34;;;;;;;1.08;1.08;;;4.70;69.00;;;;;;5067261;28;20040;-70
2024/01/07 04:31:00;;;;;;;2.38;2.25;;;4.60;68.90;;;;;;5074828;28;20524;-70
2024/01/07 04:33:25;;;;;;;0.80;0.80;;;4.60;68.80;;;;;;5070546;28;20028;-70
2024/01/07 04:35:50;;;;;;;1.00;1.00;;;4.60;68.90;;;;;;5070920;28;20384;-70
2024/01/07 04:38:16;;;;;;;0.80;0.80;;;4.50;68.90;;;;;;5071187;28;20040;-70
2024/01/07 04:40:41;;;;;;;1.52;1.35;;;4.60;69.00;;;;;;5073840;28;20025;-70
2024/01/07 04:43:07;;;;;;;2.92;1.23;;;4.50;69.00;;;;;;5075507;28;20071;-70
2024/01/07 04:45:32;;;;;;;0.70;0.70;;;4.60;69.10;;;;;;5075002;28;20127;-70
2024/01/07 04:47:58;;;;;;;0.70;0.70;;;4.50;69.00;;;;;;5075170;28;20040;-71
2024/01/07 04:50:23;;;;;;;0.68;0.68;;;4.50;69.10;;;;;;5074150;28;21018;-71
2024/01/07 04:52:49;;;;;;;0.80;0.80;;;4.50;69.00;;;;;;5075232;28;20052;-70
2024/01/07 04:55:14;;;;;;;0.60;0.60;;;4.60;68.90;;;;;;5073729;28;20032;-70
2024/01/07 04:57:40;;;;;;;0.85;0.85;;;4.60;68.90;;;;;;5073706;28;20029;-70
2024/01/07 05:00:06;;;;;;;0.68;0.68;;;4.50;68.80;;;;;;5080112;28;20437;-70
2024/01/07 05:02:31;;;;;;;0.90;0.90;;;4.50;68.80;;;;;;5073657;28;20459;-70
2024/01/07 05:04:57;;;;;;;0.60;0.60;;;4.50;68.80;;;;;;5077492;28;20032;-70
2024/01/07 05:07:22;;;;;;;0.63;0.63;;;4.50;68.80;;;;;;5072907;28;20400;-70
2024/01/07 05:09:48;;;;;;;0.85;0.85;;;4.50;68.80;;;;;;5077150;28;20493;-70
2024/01/07 05:12:13;;;;;;;0.95;0.95;;;4.50;68.80;;;;;;5078199;28;20039;-70
2024/01/07 05:14:40;;;;;;;0.98;0.98;;;4.50;68.70;;;;;;5066198;28;20404;-70
2024/01/07 05:17:06;;;;;;;0.60;0.60;;;4.50;68.50;;;;;;5074718;28;20498;-70
2024/01/07 05:19:31;;;;;;;1.05;1.00;;;4.40;68.40;;;;;;5073966;28;20028;-70
2024/01/07 05:21:57;;;;;;;0.77;0.77;;;4.40;68.30;;;;;;5074635;28;20070;-70
2024/01/07 05:24:23;;;;;;;0.60;0.60;;;4.40;68.10;;;;;;5074019;28;20029;-70
2024/01/07 05:26:48;;;;;;;1.02;1.02;;;4.40;67.90;;;;;;5074294;28;20020;-70
2024/01/07 05:29:14;;;;;;;0.65;0.65;;;4.40;67.70;;;;;;5074361;28;20118;-70
2024/01/07 05:31:40;;;;;;;0.60;0.60;;;4.30;67.70;;;;;;5078130;28;20029;-70
2024/01/07 05:34:05;;;;;;;0.60;0.60;;;4.30;68.20;;;;;;5072415;28;20399;-71
2024/01/07 05:36:31;;;;;;;2.20;2.10;;;4.30;68.20;;;;;;5077971;28;20025;-70
2024/01/07 05:38:56;;;;;;;0.80;0.80;;;4.40;67.70;;;;;;5080759;28;20036;-70
2024/01/07 05:41:22;;;;;;;2.47;1.25;;;4.30;67.50;;;;;;5079586;28;20044;-70
2024/01/07 05:43:48;;;;;;;0.77;0.77;;;4.30;67.60;;;;;;5076322;28;20037;-70
2024/01/07 05:46:14;;;;;;;1.17;1.15;;;4.30;67.70;;;;;;5074069;28;20063;-70
2024/01/07 05:48:48;;;;;;;1.85;1.35;;;4.40;67.50;;;;;;5078544;28;20039;-70
2024/01/07 05:51:14;;;;;;;0.90;0.90;;;4.30;67.70;;;;;;5084047;28;20129;-70
2024/01/07 05:53:40;;;;;;;0.70;0.70;;;4.30;67.70;;;;;;5072986;28;20036;-70
2024/01/07 05:56:06;;;;;;;0.65;0.65;;;4.40;67.80;;;;;;5072232;28;20031;-70
2024/01/07 05:58:32;;;;;;;1.60;1.50;;;4.40;67.70;;;;;;5076592;28;20027;-70
2024/01/07 06:00:57;;;;;;;0.70;0.70;;;4.40;67.50;;;;;;5075054;28;20111;-70
2024/01/07 06:03:23;;;;;;;1.02;1.02;;;4.30;67.50;;;;;;5081978;28;20037;-70
2024/01/07 06:05:48;;;;;;;0.90;0.90;;;4.30;67.70;;;;;;5074886;28;20036;-70
2024/01/07 06:08:14;;;;;;;1.30;1.15;;;4.30;67.60;;;;;;5073059;28;20103;-70
2024/01/07 06:10:40;;;;;;;1.08;1.02;;;4.30;67.60;;;;;;5073535;28;20421;-70
2024/01/07 06:13:06;;;;;;;0.63;0.63;;;4.30;67.50;;;;;;5076145;28;20038;-70
2024/01/07 06:15:31;;;;;;;1.00;1.00;;;4.30;67.70;;;;;;5085145;28;20581;-70
2024/01/07 06:17:57;;;;;;;0.65;0.65;;;4.40;67.80;;;;;;5078250;28;20034;-70
2024/01/07 06:20:23;;;;;;;0.70;0.70;;;4.40;67.90;;;;;;5073117;28;20041;-70
2024/01/07 06:22:48;;;;;;;0.70;0.70;;;4.40;67.50;;;;;;5073569;28;20098;-70
2024/01/07 06:25:14;;;;;;;0.60;0.60;;;4.40;67.60;;;;;;5072251;28;20112;-70
2024/01/07 06:27:40;;;;;;;1.00;0.95;;;4.40;67.20;;;;;;5076015;28;20120;-70
2024/01/07 06:30:06;;;;;;;1.67;1.58;;;4.30;67.00;;;;;;5076196;28;20040;-70
2024/01/07 06:32:32;;;;;;;0.80;0.80;;;4.30;67.30;;;;;;5073365;28;20467;-70
2024/01/07 06:34:58;;;;;;;0.98;0.93;;;4.30;67.40;;;;;;5072975;28;20472;-70
2024/01/07 06:37:23;;;;;;;0.90;0.90;;;4.40;67.40;;;;;;5076604;28;20031;-70
2024/01/07 06:39:49;;;;;;;0.82;0.82;;;4.30;67.30;;;;;;5072901;28;20490;-70
2024/01/07 06:42:14;;;;;;;0.63;0.63;;;4.30;67.20;;;;;;5071601;28;20025;-70
2024/01/07 06:44:40;;;;;;;5.88;3.35;;;4.30;67.00;;;;;;5079146;28;20017;-70
2024/01/07 06:47:06;;;;;;;0.60;0.60;;;4.30;66.90;;;;;;5073073;28;20443;-70
2024/01/07 06:49:31;;;;;;;0.60;0.60;;;4.30;67.00;;;;;;5072604;28;20115;-70
2024/01/07 06:51:57;;;;;;;0.60;0.60;;;4.30;66.80;;;;;;5073117;28;20064;-70
2024/01/07 06:54:22;;;;;;;2.70;2.22;;;4.30;66.70;;;;;;5072287;28;20040;-70
2024/01/07 06:56:48;;;;;;;0.70;0.70;;;4.30;67.00;;;;;;5071876;28;20059;-70
2024/01/07 06:59:13;;;;;;;0.70;0.70;;;4.20;66.40;;;;;;5074351;28;20020;-70
2024/01/07 07:01:39;;;;;;;0.70;0.70;;;4.20;66.00;;;;;;5080509;28;20390;-70
2024/01/07 07:04:05;;;;;;;0.68;0.68;;;4.20;66.20;;;;;;5074840;28;20425;-70
2024/01/07 07:06:30;;;;;;;0.98;0.93;;;4.20;66.10;;;;;;5075549;28;20538;-69
2024/01/07 07:08:56;;;;;;;0.85;0.85;;;4.10;65.80;;;;;;5085417;28;20507;-70
2024/01/07 07:11:21;;;;;;;0.70;0.70;;;4.00;65.60;;;;;;5072178;28;20073;-70
2024/01/07 07:13:47;;;;;;;0.73;0.73;;;4.00;65.90;;;;;;5073854;28;20036;-70
2024/01/07 07:16:12;;;;;;;0.65;0.65;;;4.00;65.60;;;;;;5072043;28;20173;-70
2024/01/07 07:18:38;;;;;;;0.60;0.60;;;4.00;65.90;;;;;;5071871;28;20384;-70
2024/01/07 07:21:03;;;;;;;1.58;1.48;;;4.00;65.60;;;;;;5072471;28;20024;-70
2024/01/07 07:23:29;;;;;;;0.70;0.70;;;4.00;65.90;;;;;;5071970;28;20395;-69
2024/01/07 07:25:55;;;;;;;0.60;0.60;;;4.00;66.20;;;;;;5067573;28;20067;-69
2024/01/07 07:28:20;;;;;;;0.70;0.70;;;4.00;65.30;;;;;;5080377;28;20115;-70
2024/01/07 07:30:45;;;;;;;0.68;0.68;;;4.00;65.30;;;;;;5071780;28;20123;-69
2024/01/07 07:33:11;;;;;;;0.90;0.90;;;4.00;65.30;;;;;;5081617;28;20034;-69
2024/01/07 07:35:39;;;;;;;0.60;0.60;;;3.90;65.10;;;;;;5078903;28;20383;-69
2024/01/07 07:38:05;;;;;;;0.60;0.60;;;4.00;65.00;;;;;;5072054;28;20025;-69
2024/01/07 07:40:30;;;;;;;0.70;0.70;;;3.90;65.40;;;;;;5071425;28;20078;-70
2024/01/07 07:42:56;;;;;;;0.70;0.70;;;4.00;65.50;;;;;;5075062;28;20103;-69
2024/01/07 07:45:22;;;;;;;0.68;0.68;;;3.90;65.10;;;;;;5074882;28;20445;-70
2024/01/07 07:47:47;;;;;;;0.70;0.70;;;3.90;65.10;;;;;;5071831;28;20112;-69
2024/01/07 07:50:13;;;;;;;0.70;0.70;;;3.90;65.10;;;;;;5071640;28;20025;-70
2024/01/07 07:52:38;;;;;;;0.60;0.60;;;3.90;65.00;;;;;;5071736;28;20024;-69
2024/01/07 07:55:06;;;;;;;0.60;0.60;;;3.90;65.00;;;;;;5071351;28;20063;-69
2024/01/07 07:57:32;;;;;;;0.70;0.70;;;3.90;65.00;;;;;;5071768;28;20028;-69
2024/01/07 07:59:57;;;;;;;0.63;0.63;;;3.90;64.90;;;;;;5071432;28;20037;-69
2024/01/07 08:02:23;;;;;;;0.70;0.70;;;3.90;65.30;;;;;;5071141;28;20499;-69
2024/01/07 08:04:48;;;;;;;0.60;0.60;;;3.90;65.40;;;;;;5071166;28;20039;-69
2024/01/07 08:07:14;;;;;;;0.90;0.90;;;3.90;65.40;;;;;;5071260;28;20063;-69
2024/01/07 08:09:39;;;;;;;0.60;0.60;;;3.90;65.00;;;;;;5071326;28;20494;-69
2024/01/07 08:12:06;;;;;;;0.75;0.75;;;3.90;64.80;;;;;;5071356;28;20040;-68
2024/01/07 08:14:37;;;;;;;0.68;0.68;;;3.80;64.80;;;;;;5070249;28;20039;-69
2024/01/07 08:17:04;;;;;;;0.93;0.93;;;3.80;64.80;;;;;;5069954;28;20052;-69
2024/01/07 08:19:30;;;;;;;0.70;0.70;;;3.80;64.90;;;;;;5074233;28;20032;-69
2024/01/07 08:21:56;;;;;;;0.75;0.75;;;3.80;65.00;;;;;;5071282;28;20368;-69
2024/01/07 08:24:22;;;;;;;0.60;0.60;;;3.90;64.80;;;;;;5078994;28;20057;-69
2024/01/07 08:26:47;;;;;;;0.60;0.60;;;3.80;64.90;;;;;;5071114;28;20017;-69
2024/01/07 08:29:13;;;;;;;0.80;0.80;;;3.80;64.90;;;;;;5071710;28;20536;-68
2024/01/07 08:31:39;;;;;;;0.60;0.60;;;3.80;64.80;;;;;;5071246;28;20077;-69
2024/01/07 08:34:05;;;;;;;0.57;0.57;;;3.80;64.70;;;;;;5069995;28;20032;-69
2024/01/07 08:36:30;;;;;;;0.70;0.70;;;3.80;64.30;;;;;;5078207;28;20038;-69
2024/01/07 08:38:56;;;;;;;0.55;0.55;;;3.80;63.70;;;;;;5070867;28;20376;-69
2024/01/07 08:41:21;;;;;;;1.30;1.20;;;3.80;63.40;;;;;;5071129;28;20067;-68
2024/01/07 08:43:47;;;;;;;0.60;0.60;;;3.80;63.90;;;;;;5070988;28;20028;-69
2024/01/07 08:46:13;;;;;;;1.33;1.23;;;3.80;64.30;;;;;;5070766;28;20031;-68
2024/01/07 08:48:39;;;;;;;0.98;0.98;;;3.80;64.00;;;;;;5082097;28;20027;-69
2024/01/07 08:51:05;;;;;;;0.70;0.70;;;3.80;63.30;;;;;;5070749;28;20024;-68
2024/01/07 08:53:31;;;;;;;0.80;0.80;;;3.80;64.10;;;;;;5069707;28;20475;-68
2024/01/07 08:55:56;;;;;;;0.60;0.60;;;3.80;64.00;;;;;;5071317;28;20028;-69
2024/01/07 08:58:22;;;;;;;0.68;0.68;;;3.90;64.30;;;;;;5078640;28;20380;-68
2024/01/07 09:00:47;;;;;;;0.80;0.80;;;3.90;64.80;;;;;;5070470;28;20028;-68
2024/01/07 09:03:13;;;;;;;0.80;0.80;;;3.90;64.70;;;;;;5072516;28;20514;-68
2024/01/07 09:05:38;;;;;;;5.75;4.85;;;3.90;64.80;;;;;;5077623;28;20032;-69
2024/01/07 09:08:06;;;;;;;2.40;1.80;;;3.90;64.80;;;;;;5070537;28;20076;-68
2024/01/07 09:10:31;;;;;;;2.58;1.52;;;4.00;65.10;;;;;;5051402;28;20029;-68
2024/01/07 09:12:56;;;;;;;0.63;0.63;;;4.00;65.60;;;;;;5072848;28;20395;-68
2024/01/07 09:15:22;;;;;;;1.05;1.05;;;4.00;65.20;;;;;;5069701;28;20129;-68
2024/01/07 09:17:48;;;;;;;1.13;1.13;;;4.00;64.60;;;;;;5075483;28;20028;-68
2024/01/07 09:20:13;;;;;;;0.80;0.80;;;4.00;64.40;;;;;;5072932;28;20024;-68
2024/01/07 09:22:40;;;;;;;0.60;0.60;;;4.00;63.90;;;;;;5070296;28;20025;-69
2024/01/07 09:25:06;;;;;;;0.63;0.63;;;4.00;64.20;;;;;;5070891;28;20418;-68
2024/01/07 09:27:33;;;;;;;0.60;0.60;;;4.00;64.20;;;;;;5074507;28;20024;-68
2024/01/07 09:29:59;;;;;;;1.35;1.25;;;4.10;64.50;;;;;;5074210;28;20368;-69
2024/01/07 09:32:24;;;;;;;0.70;0.70;;;4.10;64.30;;;;;;5074648;28;20044;-68
2024/01/07 09:34:50;;;;;;;0.60;0.60;;;4.10;63.40;;;;;;5077167;28;20062;-68
2024/01/07 09:37:17;;;;;;;0.50;0.50;;;4.00;64.30;;;;;;5074444;28;20029;-68
2024/01/07 09:39:44;;;;;;;0.60;0.60;;;4.10;64.70;;;;;;5073952;28;20032;-68
2024/01/07 09:42:13;;;;;;;1.98;1.88;;;4.20;64.30;;;;;;5076741;28;20024;-68
2024/01/07 09:44:40;;;;;;;1.08;1.08;;;4.10;64.30;;;;;;5073723;28;20021;-69
2024/01/07 09:47:11;;;;;;;0.60;0.60;;;4.10;63.20;;;;;;5074187;28;20083;-68
2024/01/07 09:49:37;;;;;;;0.65;0.65;;;4.10;63.10;;;;;;5073736;28;20035;-68
2024/01/07 09:52:04;;;;;;;0.80;0.80;;;4.00;62.80;;;;;;5074035;28;20029;-68
2024/01/07 09:54:30;;;;;;;1.50;1.40;;;4.00;62.40;;;;;;5087131;28;20478;-69
2024/01/07 09:57:01;;;;;;;1.33;1.25;;;4.00;62.80;;;;;;5073849;28;20017;-68
2024/01/07 09:59:30;;;;;;;1.00;1.00;;;4.00;62.90;;;;;;5074121;28;20024;-68
2024/01/07 10:01:57;;;;;;;1.58;1.48;;;4.00;63.30;;;;;;5074023;28;20418;-68
2024/01/07 10:04:24;;;;;;;0.60;0.60;;;4.00;63.50;;;;;;5072560;28;20072;-68
2024/01/07 10:06:49;;;;;;;0.60;0.60;;;4.00;62.80;;;;;;5073088;28;20086;-68
2024/01/07 10:09:17;;;;;;;0.60;0.60;;;4.00;62.90;;;;;;5073707;28;20380;-68
2024/01/07 10:11:43;;;;;;;0.70;0.70;;;4.00;63.10;;;;;;5073364;28;20105;-68
2024/01/07 10:14:09;;;;;;;0.77;0.77;;;4.10;62.80;;;;;;5073536;28;20062;-68
2024/01/07 10:16:34;;;;;;;0.70;0.70;;;4.10;62.50;;;;;;5072880;28;20029;-69
2024/01/07 10:19:00;;;;;;;0.70;0.70;;;4.10;62.90;;;;;;5073676;28;20047;-68
2024/01/07 10:21:25;;;;;;;0.60;0.60;;;4.10;63.20;;;;;;5073310;28;20039;-68
2024/01/07 10:24:06;;;;;;;0.60;0.60;;;4.20;62.90;;;;;;5071220;28;20032;-68
2024/01/07 10:26:32;;;;;;;0.70;0.70;;;4.20;61.70;;;;;;5081018;28;20024;-68
2024/01/07 10:28:57;;;;;;;0.60;0.60;;;4.20;62.70;;;;;;5073079;28;20044;-68
2024/01/07 10:31:23;;;;;;;0.60;0.60;;;4.30;63.70;;;;;;5072973;28;20463;-68
2024/01/07 10:33:49;;;;;;;0.73;0.73;;;4.40;62.90;;;;;;5072899;28;20090;-68
2024/01/07 10:36:16;;;;;;;0.60;0.60;;;4.40;63.20;;;;;;5074833;28;20074;-68
2024/01/07 10:38:45;;;;;;;0.65;0.65;;;4.50;63.80;;;;;;5071731;28;20024;-68
2024/01/07 10:41:11;;;;;;;0.60;0.60;;;4.50;64.10;;;;;;5074495;28;20017;-68
2024/01/07 10:43:40;;;;;;;0.60;0.60;;;4.60;64.50;;;;;;5072750;28;20063;-68
2024/01/07 10:46:07;;;;;;;0.57;0.57;;;4.60;63.50;;;;;;5070703;28;20020;-68
2024/01/07 10:48:37;;;;;;;0.73;0.73;;;4.60;63.40;;;;;;5072422;28;20028;-68
2024/01/07 10:51:03;;;;;;;0.70;0.70;;;4.50;63.70;;;;;;5070471;28;20020;-68
2024/01/07 10:53:34;;;;;;;0.65;0.65;;;4.60;63.80;;;;;;5072080;28;20423;-68
2024/01/07 10:56:03;;;;;;;0.60;0.60;;;4.60;63.00;;;;;;5071747;28;20021;-68
2024/01/07 10:58:32;;;;;;;1.08;1.08;;;4.60;63.50;;;;;;5077198;28;20367;-68
2024/01/07 11:01:02;;;;;;;0.70;0.70;;;4.60;64.10;;;;;;5069115;28;20476;-68
2024/01/07 11:03:51;;;;;;;0.57;0.57;;;4.70;64.40;;;;;;5057127;28;20040;-68
2024/01/07 11:06:52;;;;;;;1.13;1.13;;;4.70;63.80;;;;;;5052733;28;20036;-68
2024/01/07 11:09:23;;;;;;;0.65;0.65;;;4.70;64.40;;;;;;5072256;28;20112;-68
2024/01/07 11:11:49;;;;;;;0.68;0.68;;;4.70;64.00;;;;;;5071503;28;20016;-68
2024/01/07 11:14:34;;;;;;;0.70;0.70;;;4.70;63.70;;;;;;5070386;28;20111;-68
2024/01/07 11:16:59;;;;;;;0.60;0.60;;;4.70;63.80;;;;;;5067845;28;20505;-69
2024/01/07 11:19:26;;;;;;;0.75;0.75;;;4.70;64.40;;;;;;5071724;28;20041;-68
2024/01/07 11:21:51;;;;;;;0.90;0.90;;;4.80;64.90;;;;;;5071507;28;20032;-68
2024/01/07 11:24:39;;;;;;;0.55;0.55;;;4.90;64.60;;;;;;5069315;28;20024;-68
2024/01/07 11:27:04;;;;;;;0.80;0.80;;;4.90;64.90;;;;;;5070915;28;20457;-69
2024/01/07 11:29:31;;;;;;;0.60;0.60;;;5.00;65.30;;;;;;5069861;28;20055;-68
2024/01/07 11:31:58;;;;;;;0.60;0.60;;;5.00;65.60;;;;;;5071113;28;20028;-68
2024/01/07 11:34:43;;;;;;;0.60;0.60;;;5.10;66.00;;;;;;5070175;28;20120;-68
2024/01/07 11:37:11;;;;;;;0.98;0.98;;;5.20;65.20;;;;;;5071682;28;20035;-68
2024/01/07 11:39:37;;;;;;;0.60;0.60;;;5.20;64.80;;;;;;5071651;28;20020;-69
2024/01/07 11:42:03;;;;;;;0.60;0.60;;;5.20;65.10;;;;;;5084068;28;20024;-68
2024/01/07 11:44:29;;;;;;;0.70;0.70;;;5.20;65.20;;;;;;5070457;28;20031;-69
2024/01/07 11:46:56;;;;;;;0.70;0.70;;;5.30;65.30;;;;;;5071232;28;20036;-68
2024/01/07 11:49:21;;;;;;;0.70;0.70;;;5.20;64.30;;;;;;5071386;28;20095;-68
2024/01/07 11:51:47;;;;;;;0.70;0.70;;;5.20;64.80;;;;;;5071625;28;20423;-69
2024/01/07 11:54:12;;;;;;;0.60;0.60;;;5.20;65.10;;;;;;5071604;28;20032;-68
2024/01/07 11:56:39;;;;;;;0.73;0.73;;;5.30;64.30;;;;;;5071181;28;20032;-68
2024/01/07 11:59:06;;;;;;;0.60;0.60;;;5.30;64.60;;;;;;5071629;28;20053;-69
2024/01/07 12:01:31;;;;;;;1.25;1.13;;;5.30;64.90;;;;;;5071308;28;20024;-68
2024/01/07 12:03:57;;;;;;;0.90;0.90;;;5.30;64.50;;;;;;5071493;28;20024;-68
2024/01/07 12:06:23;;;;;;;0.60;0.60;;;5.30;64.70;;;;;;5070970;28;20085;-69
2024/01/07 12:08:49;;;;;;;0.60;0.60;;;5.30;64.90;;;;;;5071146;28;20051;-69
2024/01/07 12:11:15;;;;;;;0.60;0.60;;;5.30;65.00;;;;;;5071355;28;20020;-69
2024/01/07 12:13:42;;;;;;;0.77;0.77;;;5.30;65.30;;;;;;5071339;28;20039;-69
2024/01/07 12:16:09;;;;;;;0.63;0.63;;;5.40;65.10;;;;;;5070981;28;20037;-68
2024/01/07 12:18:37;;;;;;;0.60;0.60;;;5.40;65.50;;;;;;5071139;28;20539;-69
2024/01/07 12:21:03;;;;;;;1.95;1.15;;;5.40;64.60;;;;;;5067551;28;20009;-69
2024/01/07 12:23:33;;;;;;;0.70;0.70;;;5.40;64.90;;;;;;5065580;28;20040;-69
2024/01/07 12:26:08;;;;;;;0.70;0.70;;;5.40;64.20;;;;;;5069613;28;20472;-68
2024/01/07 12:28:33;;;;;;;0.70;0.70;;;5.30;64.20;;;;;;5056878;28;20476;-69
2024/01/07 12:31:01;;;;;;;0.65;0.65;;;5.30;64.20;;;;;;5070824;28;20043;-69
2024/01/07 12:33:27;;;;;;;1.00;1.00;;;5.30;63.60;;;;;;5069020;28;20502;-69
2024/01/07 12:35:52;;;;;;;0.70;0.70;;;5.30;63.70;;;;;;5070330;28;20021;-68
2024/01/07 12:38:24;;;;;;;0.70;0.70;;;5.30;64.30;;;;;;5069617;28;20532;-69
2024/01/07 12:40:50;;;;;;;0.57;0.57;;;5.20;64.10;;;;;;5066144;28;20055;-69
2024/01/07 12:43:15;;;;;;;0.80;0.80;;;5.30;64.10;;;;;;5070000;28;20407;-69
2024/01/07 12:45:41;;;;;;;0.60;0.60;;;5.30;63.30;;;;;;5068070;28;20025;-69
2024/01/07 12:48:06;;;;;;;0.88;0.88;;;5.20;63.20;;;;;;5069597;28;20407;-69
2024/01/07 12:50:32;;;;;;;0.60;0.60;;;5.20;63.60;;;;;;5070631;28;20028;-69
2024/01/07 12:52:58;;;;;;;2.15;1.77;;;5.20;63.00;;;;;;5068635;28;20032;-69